Time;durP1;ratioP1;P1;durP2;ratioP2;P2;SDS_P1;SDS_P2;PMS_P1;PMS_P2;Temp;Humidity;BMP_temperature;BMP_pressure;BME280_temperature;BME280_humidity;BME280_pressure;Samples;Min_cycle;Max_cycle;Signal;HPM_P1;HPM_P2
2023/12/25 00:02:11;;;;;;;1.60;1.10;;;11.30;99.90;;;;;;5037807;28;20454;-77
2023/12/25 00:04:38;;;;;;;2.23;1.23;;;11.20;99.90;;;;;;5038296;28;20846;-79
2023/12/25 00:07:07;;;;;;;2.17;1.30;;;11.20;99.90;;;;;;5037308;28;20456;-79
2023/12/25 00:09:34;;;;;;;2.00;1.30;;;11.30;99.90;;;;;;5036697;28;20908;-79
2023/12/25 00:12:01;;;;;;;1.97;1.10;;;11.30;99.90;;;;;;5037023;28;20544;-80
2023/12/25 00:14:29;;;;;;;1.60;1.40;;;11.30;99.90;;;;;;5037696;28;20459;-80
2023/12/25 00:16:55;;;;;;;1.77;1.40;;;11.30;99.90;;;;;;5038004;28;20479;-79
2023/12/25 00:19:22;;;;;;;2.43;1.20;;;11.30;99.90;;;;;;5037192;28;20553;-79
2023/12/25 00:21:49;;;;;;;1.53;1.00;;;11.30;99.90;;;;;;5038302;28;20456;-80
2023/12/25 00:24:16;;;;;;;1.90;1.30;;;11.30;99.90;;;;;;5037826;28;20491;-79
2023/12/25 00:26:42;;;;;;;4.13;1.83;;;11.20;99.90;;;;;;5037475;28;20465;-80
2023/12/25 00:29:09;;;;;;;2.23;1.30;;;11.20;99.90;;;;;;5037676;28;20456;-80
2023/12/25 00:31:37;;;;;;;1.80;1.50;;;11.20;99.90;;;;;;5037728;28;20514;-79
2023/12/25 00:34:04;;;;;;;1.60;1.27;;;11.20;99.90;;;;;;5038892;28;20465;-79
2023/12/25 00:36:31;;;;;;;2.27;1.53;;;11.20;99.90;;;;;;5037652;28;20449;-77
2023/12/25 00:38:58;;;;;;;1.80;1.23;;;11.20;99.90;;;;;;5037771;28;21212;-78
2023/12/25 00:41:30;;;;;;;1.87;1.20;;;11.30;99.90;;;;;;5037421;28;20865;-79
2023/12/25 00:43:57;;;;;;;2.23;1.40;;;11.20;99.90;;;;;;5037958;28;20495;-79
2023/12/25 00:46:24;;;;;;;2.87;1.20;;;11.30;99.90;;;;;;5038721;28;20456;-79
2023/12/25 00:48:52;;;;;;;3.03;1.30;;;11.30;99.90;;;;;;5037984;28;20458;-79
2023/12/25 00:51:19;;;;;;;1.67;1.17;;;11.30;99.90;;;;;;5038368;28;20481;-80
2023/12/25 00:53:45;;;;;;;3.10;1.40;;;11.30;99.90;;;;;;5042315;28;20462;-77
2023/12/25 00:56:12;;;;;;;4.37;1.30;;;11.30;99.90;;;;;;5045007;28;21233;-78
2023/12/25 00:58:39;;;;;;;1.87;1.40;;;11.30;99.90;;;;;;5045990;28;20891;-77
2023/12/25 01:01:06;;;;;;;3.03;1.60;;;11.30;99.90;;;;;;5038681;28;20899;-79
2023/12/25 01:03:33;;;;;;;3.10;1.80;;;11.30;99.90;;;;;;5038280;28;20496;-79
2023/12/25 01:06:01;;;;;;;2.37;1.70;;;11.30;99.90;;;;;;5037709;28;20459;-79
2023/12/25 01:08:28;;;;;;;2.70;1.83;;;11.30;99.90;;;;;;5037139;28;20453;-79
2023/12/25 01:10:54;;;;;;;2.80;2.00;;;11.30;99.90;;;;;;5036351;28;20485;-79
2023/12/25 01:13:21;;;;;;;1.50;1.27;;;11.30;99.90;;;;;;5036796;28;21001;-78
2023/12/25 01:15:48;;;;;;;3.40;1.30;;;11.30;99.90;;;;;;5036691;28;20539;-79
2023/12/25 01:18:15;;;;;;;1.70;1.40;;;11.30;99.90;;;;;;5036645;28;20461;-78
2023/12/25 01:20:43;;;;;;;2.73;1.60;;;11.30;99.90;;;;;;5035883;28;20490;-79
2023/12/25 01:23:11;;;;;;;3.07;1.60;;;11.30;99.90;;;;;;5036110;28;20458;-77
2023/12/25 01:25:38;;;;;;;2.40;1.73;;;11.30;99.90;;;;;;5036165;28;20486;-77
2023/12/25 01:28:06;;;;;;;3.80;2.20;;;11.30;99.90;;;;;;5035752;28;20465;-77
2023/12/25 01:30:32;;;;;;;2.23;1.80;;;11.40;99.90;;;;;;5034969;28;20538;-78
2023/12/25 01:32:59;;;;;;;3.07;2.50;;;11.40;99.90;;;;;;5035900;28;20464;-79
2023/12/25 01:35:26;;;;;;;2.73;2.10;;;11.40;99.90;;;;;;5035384;28;20468;-78
2023/12/25 01:37:53;;;;;;;2.23;2.03;;;11.30;99.90;;;;;;5035713;28;20459;-79
2023/12/25 01:40:21;;;;;;;4.53;2.33;;;11.30;99.90;;;;;;5035462;28;20488;-78
2023/12/25 01:42:48;;;;;;;5.83;2.30;;;11.30;99.90;;;;;;5017829;28;20538;-77
2023/12/25 01:45:15;;;;;;;3.13;2.17;;;11.30;99.90;;;;;;5036126;28;20857;-79
2023/12/25 01:47:42;;;;;;;5.17;2.60;;;11.30;99.90;;;;;;5035559;28;20543;-78
2023/12/25 01:50:11;;;;;;;2.20;1.97;;;11.30;99.90;;;;;;5035820;28;20859;-78
2023/12/25 01:52:38;;;;;;;7.20;2.80;;;11.30;99.90;;;;;;5035840;28;20468;-79
2023/12/25 01:55:06;;;;;;;3.83;2.77;;;11.40;99.90;;;;;;5036669;28;20967;-79
2023/12/25 01:57:34;;;;;;;4.13;2.73;;;11.30;99.90;;;;;;5035370;28;20499;-77
2023/12/25 02:00:01;;;;;;;3.30;2.73;;;11.40;99.90;;;;;;5036002;28;20533;-79
2023/12/25 02:02:27;;;;;;;3.90;2.60;;;11.40;99.90;;;;;;5035640;28;20461;-79
2023/12/25 02:04:54;;;;;;;2.63;2.43;;;11.30;99.90;;;;;;5035787;28;20964;-79
2023/12/25 02:07:22;;;;;;;2.70;2.50;;;11.40;99.90;;;;;;5036169;28;20529;-79
2023/12/25 02:09:49;;;;;;;3.13;2.30;;;11.40;99.90;;;;;;5035278;28;20480;-78
2023/12/25 02:12:16;;;;;;;2.10;1.90;;;11.40;99.90;;;;;;5035760;28;20460;-79
2023/12/25 02:14:44;;;;;;;4.23;1.93;;;11.40;99.90;;;;;;5035558;28;20876;-79
2023/12/25 02:17:12;;;;;;;2.00;1.80;;;11.40;99.90;;;;;;5035196;28;20452;-78
2023/12/25 02:19:41;;;;;;;2.20;1.83;;;11.40;99.90;;;;;;5035424;28;20456;-78
2023/12/25 02:22:09;;;;;;;2.00;1.77;;;11.30;99.90;;;;;;5036423;28;20484;-79
2023/12/25 02:24:39;;;;;;;2.50;1.80;;;11.30;99.90;;;;;;5035376;28;20488;-78
2023/12/25 02:27:07;;;;;;;2.43;2.20;;;11.40;99.90;;;;;;5034998;28;20457;-78
2023/12/25 02:29:34;;;;;;;2.70;2.13;;;11.30;99.90;;;;;;5035345;28;20949;-77
2023/12/25 02:32:01;;;;;;;2.30;2.10;;;11.40;99.90;;;;;;5035573;28;20487;-79
2023/12/25 02:34:28;;;;;;;3.07;1.80;;;11.40;99.90;;;;;;5035325;28;20471;-79
2023/12/25 02:36:55;;;;;;;3.00;2.07;;;11.40;99.90;;;;;;5034763;28;20490;-79
2023/12/25 02:39:21;;;;;;;4.57;1.90;;;11.40;99.90;;;;;;5034816;28;20448;-79
2023/12/25 02:41:48;;;;;;;2.30;2.00;;;11.40;99.90;;;;;;5033919;28;20468;-79
2023/12/25 02:44:17;;;;;;;2.43;2.13;;;11.40;99.90;;;;;;5034527;28;20490;-79
2023/12/25 02:46:44;;;;;;;2.93;2.27;;;11.40;99.90;;;;;;5035023;28;20470;-78
2023/12/25 02:49:10;;;;;;;5.33;2.37;;;11.40;99.90;;;;;;5035234;28;20461;-79
2023/12/25 02:51:37;;;;;;;2.80;2.60;;;11.40;99.90;;;;;;5034162;28;20477;-79
2023/12/25 02:54:04;;;;;;;3.20;2.27;;;11.40;99.90;;;;;;5034847;28;20449;-77
2023/12/25 02:56:31;;;;;;;2.77;2.57;;;11.40;99.90;;;;;;5034392;28;20452;-78
2023/12/25 02:58:58;;;;;;;3.20;2.90;;;11.30;99.90;;;;;;5032351;28;20460;-77
2023/12/25 03:01:26;;;;;;;5.20;3.40;;;11.40;99.90;;;;;;5034125;28;20482;-78
2023/12/25 03:03:52;;;;;;;3.40;3.10;;;11.40;99.90;;;;;;5034600;28;20942;-78
2023/12/25 03:06:19;;;;;;;4.17;3.70;;;11.40;99.90;;;;;;5034807;28;20471;-76
2023/12/25 03:08:46;;;;;;;2.73;2.53;;;11.40;99.90;;;;;;5034262;28;20964;-77
2023/12/25 03:11:13;;;;;;;2.57;2.07;;;11.40;99.90;;;;;;5033898;28;20868;-78
2023/12/25 03:13:40;;;;;;;6.30;2.53;;;11.40;99.90;;;;;;5034594;28;20467;-78
2023/12/25 03:16:07;;;;;;;2.77;2.03;;;11.40;99.90;;;;;;5034336;28;20456;-78
2023/12/25 03:18:35;;;;;;;2.93;2.37;;;11.40;99.90;;;;;;5034187;28;20548;-78
2023/12/25 03:21:02;;;;;;;4.60;4.20;;;11.50;99.90;;;;;;5034134;28;20481;-78
2023/12/25 03:23:29;;;;;;;3.13;2.73;;;11.40;99.90;;;;;;5034456;28;20459;-79
2023/12/25 03:25:56;;;;;;;2.67;2.47;;;11.40;99.90;;;;;;5035533;28;21043;-78
2023/12/25 03:28:26;;;;;;;4.07;3.03;;;11.40;99.90;;;;;;5036072;28;20515;-78
2023/12/25 03:30:53;;;;;;;2.30;2.00;;;11.40;99.90;;;;;;5036649;28;20484;-79
2023/12/25 03:33:20;;;;;;;3.90;1.87;;;11.40;99.90;;;;;;5036369;28;20468;-78
2023/12/25 03:35:48;;;;;;;4.60;2.67;;;11.40;99.90;;;;;;5036470;28;20464;-77
2023/12/25 03:38:15;;;;;;;2.60;2.30;;;11.40;99.90;;;;;;5036162;28;20461;-77
2023/12/25 03:40:42;;;;;;;3.13;2.83;;;11.40;99.90;;;;;;5035521;28;20472;-78
2023/12/25 03:43:09;;;;;;;3.20;2.90;;;11.40;99.90;;;;;;5033340;28;20452;-79
2023/12/25 03:45:35;;;;;;;5.13;3.33;;;11.40;99.90;;;;;;5032882;28;21005;-79
2023/12/25 03:48:03;;;;;;;3.40;3.10;;;11.40;99.90;;;;;;5035414;28;20457;-79
2023/12/25 03:50:29;;;;;;;2.07;1.87;;;11.40;99.90;;;;;;5034764;28;20476;-79
2023/12/25 03:52:58;;;;;;;3.03;2.53;;;11.40;99.90;;;;;;5035139;28;20844;-78
2023/12/25 03:55:24;;;;;;;2.77;1.93;;;11.40;99.90;;;;;;5033261;28;20459;-77
2023/12/25 03:57:51;;;;;;;2.83;2.00;;;11.50;99.90;;;;;;5039050;28;20461;-79
2023/12/25 04:00:18;;;;;;;2.43;2.13;;;11.50;99.90;;;;;;5038775;28;20567;-79
2023/12/25 04:02:45;;;;;;;2.23;1.70;;;11.40;99.90;;;;;;5038575;28;20462;-78
2023/12/25 04:05:12;;;;;;;2.03;1.90;;;11.40;99.90;;;;;;5038344;28;20572;-79
2023/12/25 04:07:38;;;;;;;2.80;1.73;;;11.50;99.90;;;;;;5038580;28;20456;-79
2023/12/25 04:10:07;;;;;;;2.00;1.50;;;11.50;99.90;;;;;;5038380;28;20480;-79
2023/12/25 04:12:34;;;;;;;1.93;1.57;;;11.50;99.90;;;;;;5037649;28;20463;-79
2023/12/25 04:15:01;;;;;;;1.93;1.60;;;11.40;99.90;;;;;;5038510;28;20454;-79
2023/12/25 04:17:28;;;;;;;2.73;1.50;;;11.50;99.90;;;;;;5038787;28;20961;-78
2023/12/25 04:19:54;;;;;;;2.20;1.90;;;11.50;99.90;;;;;;5038287;28;20952;-79
2023/12/25 04:22:21;;;;;;;3.33;2.03;;;11.50;99.90;;;;;;5038661;28;21027;-79
2023/12/25 04:24:48;;;;;;;2.00;1.70;;;11.50;99.90;;;;;;5037986;28;20506;-79
2023/12/25 04:27:18;;;;;;;2.97;2.13;;;11.50;99.90;;;;;;5037853;28;20461;-79
2023/12/25 04:29:45;;;;;;;1.83;1.63;;;11.60;99.90;;;;;;5034017;28;20535;-79
2023/12/25 04:32:12;;;;;;;2.03;1.70;;;11.60;99.90;;;;;;5038493;28;20445;-79
2023/12/25 04:34:39;;;;;;;2.40;1.80;;;11.60;99.90;;;;;;5040291;28;20460;-77
2023/12/25 04:37:06;;;;;;;1.93;1.70;;;11.60;99.90;;;;;;5042952;28;20488;-77
2023/12/25 04:39:33;;;;;;;2.83;1.77;;;11.60;99.90;;;;;;5043261;28;20529;-77
2023/12/25 04:42:00;;;;;;;4.00;1.60;;;11.70;99.90;;;;;;5040607;28;20827;-78
2023/12/25 04:44:28;;;;;;;2.67;1.63;;;11.70;99.90;;;;;;5037839;28;20507;-80
2023/12/25 04:46:55;;;;;;;2.87;1.70;;;11.70;99.90;;;;;;5038216;28;20467;-78
2023/12/25 04:49:22;;;;;;;2.67;2.10;;;11.70;99.90;;;;;;5037813;28;20459;-78
2023/12/25 04:51:49;;;;;;;4.00;1.70;;;11.70;99.90;;;;;;5038328;28;20477;-80
2023/12/25 04:54:16;;;;;;;2.30;1.77;;;11.70;99.90;;;;;;5038138;28;20452;-79
2023/12/25 04:56:43;;;;;;;3.70;2.30;;;11.70;99.90;;;;;;5037150;28;20806;-80
2023/12/25 04:59:10;;;;;;;2.70;2.20;;;11.70;99.90;;;;;;5037389;28;20491;-79
2023/12/25 05:01:38;;;;;;;2.73;2.53;;;11.70;99.90;;;;;;5036495;28;20559;-78
2023/12/25 05:04:05;;;;;;;2.97;2.67;;;11.70;99.90;;;;;;5037699;28;20463;-78
2023/12/25 05:06:32;;;;;;;3.00;2.43;;;11.70;99.90;;;;;;5036304;28;20494;-79
2023/12/25 05:08:59;;;;;;;3.50;2.97;;;11.70;99.90;;;;;;5037250;28;20496;-78
2023/12/25 05:11:25;;;;;;;4.60;2.67;;;11.70;99.90;;;;;;5036079;28;20474;-78
2023/12/25 05:13:52;;;;;;;3.80;3.40;;;11.70;99.90;;;;;;5036985;28;20456;-79
2023/12/25 05:16:19;;;;;;;4.57;3.67;;;11.70;99.90;;;;;;5036972;28;20449;-78
2023/12/25 05:18:47;;;;;;;2.87;2.27;;;11.70;99.90;;;;;;5037240;28;20453;-78
2023/12/25 05:21:14;;;;;;;3.40;2.10;;;11.80;99.90;;;;;;5036329;28;20477;-78
2023/12/25 05:23:41;;;;;;;2.47;2.00;;;11.80;99.90;;;;;;5036683;28;20453;-78
2023/12/25 05:26:07;;;;;;;2.00;1.70;;;11.80;99.90;;;;;;5036444;28;20503;-78
2023/12/25 05:28:34;;;;;;;2.97;1.60;;;11.80;99.90;;;;;;5036376;28;20461;-78
2023/12/25 05:31:01;;;;;;;1.90;1.30;;;11.80;99.90;;;;;;5035427;28;20491;-79
2023/12/25 05:33:28;;;;;;;2.10;1.60;;;11.80;99.90;;;;;;5037234;28;20460;-76
2023/12/25 05:35:56;;;;;;;2.37;1.23;;;11.90;99.90;;;;;;5036524;28;20461;-77
2023/12/25 05:38:22;;;;;;;1.73;1.40;;;11.80;99.90;;;;;;5037193;28;20457;-79
2023/12/25 05:40:49;;;;;;;1.60;1.30;;;11.80;99.90;;;;;;5035163;28;20513;-79
2023/12/25 05:43:16;;;;;;;6.37;1.93;;;11.80;99.90;;;;;;5035439;28;20875;-79
2023/12/25 05:45:43;;;;;;;2.20;1.63;;;11.70;99.90;;;;;;5035084;28;20499;-79
2023/12/25 05:48:10;;;;;;;2.47;1.67;;;11.60;99.90;;;;;;5035032;28;20550;-77
2023/12/25 05:50:37;;;;;;;2.30;1.30;;;11.60;99.90;;;;;;5035499;28;20477;-78
2023/12/25 05:53:05;;;;;;;1.60;1.00;;;11.60;99.90;;;;;;5035459;28;20451;-79
2023/12/25 05:55:32;;;;;;;2.60;1.50;;;11.60;99.90;;;;;;5034672;28;20449;-79
2023/12/25 05:57:58;;;;;;;1.60;1.23;;;11.60;99.90;;;;;;5034921;28;20453;-79
2023/12/25 06:00:25;;;;;;;1.93;1.73;;;11.60;99.90;;;;;;5035350;28;20476;-79
2023/12/25 06:02:52;;;;;;;1.77;1.10;;;11.60;99.90;;;;;;5035196;28;20463;-80
2023/12/25 06:05:19;;;;;;;1.50;0.90;;;11.60;99.90;;;;;;5035291;28;20491;-78
2023/12/25 06:07:46;;;;;;;1.40;0.83;;;11.50;99.90;;;;;;5034884;28;20458;-80
2023/12/25 06:10:14;;;;;;;1.57;0.90;;;11.50;99.90;;;;;;5034673;28;20508;-79
2023/12/25 06:12:42;;;;;;;2.80;1.40;;;11.50;99.90;;;;;;5034431;28;20897;-79
2023/12/25 06:15:09;;;;;;;1.47;0.87;;;11.40;99.90;;;;;;5035230;28;20449;-78
2023/12/25 06:17:36;;;;;;;3.63;0.80;;;11.40;99.90;;;;;;5034945;28;20462;-79
2023/12/25 06:20:04;;;;;;;2.90;1.03;;;11.40;99.90;;;;;;5034642;28;20479;-78
2023/12/25 06:22:31;;;;;;;2.37;1.40;;;11.40;99.90;;;;;;5034590;28;20489;-80
2023/12/25 06:24:57;;;;;;;1.30;0.70;;;11.40;99.90;;;;;;5034243;28;20454;-78
2023/12/25 06:27:26;;;;;;;1.97;0.80;;;11.40;99.90;;;;;;5035023;28;20955;-79
2023/12/25 06:29:52;;;;;;;2.07;0.70;;;11.40;99.90;;;;;;5035047;28;20469;-79
2023/12/25 06:32:19;;;;;;;1.80;0.93;;;11.30;99.90;;;;;;5034960;28;20539;-78
2023/12/25 06:34:46;;;;;;;2.70;0.80;;;11.30;99.90;;;;;;5035239;28;20463;-79
2023/12/25 06:37:13;;;;;;;1.60;0.80;;;11.30;99.90;;;;;;5034707;28;20449;-80
2023/12/25 06:39:40;;;;;;;1.50;0.80;;;11.30;99.90;;;;;;5034950;28;20452;-79
2023/12/25 06:42:06;;;;;;;1.87;0.87;;;11.30;99.90;;;;;;5034735;28;20452;-79
2023/12/25 06:44:37;;;;;;;1.30;0.70;;;11.30;99.90;;;;;;5036060;28;20467;-79
2023/12/25 06:47:04;;;;;;;1.30;0.63;;;11.30;99.90;;;;;;5034670;28;20580;-79
2023/12/25 06:49:31;;;;;;;1.40;0.77;;;11.30;99.90;;;;;;5034989;28;20448;-79
2023/12/25 06:51:59;;;;;;;1.80;0.90;;;11.30;99.90;;;;;;5034397;28;20453;-78
2023/12/25 06:54:25;;;;;;;1.33;0.70;;;11.30;99.90;;;;;;5033519;28;20849;-78
2023/12/25 06:56:52;;;;;;;1.50;0.80;;;11.30;99.90;;;;;;5034703;28;20476;-78
2023/12/25 06:59:20;;;;;;;1.60;0.87;;;11.30;99.90;;;;;;5034548;28;20487;-78
2023/12/25 07:01:48;;;;;;;1.30;0.73;;;11.30;99.90;;;;;;5034817;28;20472;-79
2023/12/25 07:04:15;;;;;;;3.87;1.00;;;11.30;99.90;;;;;;5034954;28;20451;-79
2023/12/25 07:06:41;;;;;;;2.60;1.00;;;11.30;99.90;;;;;;5035116;28;20490;-79
2023/12/25 07:09:13;;;;;;;1.60;1.00;;;11.30;99.90;;;;;;5034497;28;20536;-79
2023/12/25 07:11:40;;;;;;;1.50;0.70;;;11.30;99.90;;;;;;5034383;28;20516;-79
2023/12/25 07:14:07;;;;;;;2.37;0.87;;;11.30;99.90;;;;;;5035215;28;20949;-78
2023/12/25 07:16:34;;;;;;;1.50;0.80;;;11.30;99.90;;;;;;5034387;28;20455;-79
2023/12/25 07:19:02;;;;;;;2.60;1.20;;;11.30;99.90;;;;;;5033737;28;20549;-80
2023/12/25 07:21:30;;;;;;;2.17;1.10;;;11.30;99.90;;;;;;5034090;28;20484;-78
2023/12/25 07:23:58;;;;;;;2.20;1.30;;;11.40;99.90;;;;;;5034634;28;20468;-80
2023/12/25 07:26:25;;;;;;;3.00;1.17;;;11.40;99.90;;;;;;5034294;28;20546;-79
2023/12/25 07:28:51;;;;;;;1.70;1.30;;;11.40;99.90;;;;;;5036960;28;20476;-80
2023/12/25 07:31:20;;;;;;;2.10;1.37;;;11.40;99.90;;;;;;5038451;28;20487;-79
2023/12/25 07:33:47;;;;;;;1.60;1.20;;;11.40;99.90;;;;;;5037461;28;20573;-76
2023/12/25 07:36:15;;;;;;;1.80;1.10;;;11.40;99.90;;;;;;5038828;28;20459;-79
2023/12/25 07:38:42;;;;;;;1.67;1.20;;;11.40;99.90;;;;;;5038640;28;20545;-78
2023/12/25 07:41:09;;;;;;;1.60;1.20;;;11.40;99.90;;;;;;5036797;28;20484;-78
2023/12/25 07:43:37;;;;;;;2.83;1.97;;;11.40;99.90;;;;;;5036782;28;20458;-79
2023/12/25 07:46:06;;;;;;;1.93;1.50;;;11.40;99.90;;;;;;5037656;28;21023;-79
2023/12/25 07:48:33;;;;;;;3.20;1.80;;;11.50;99.90;;;;;;5032384;28;20460;-81
2023/12/25 07:51:00;;;;;;;2.10;1.90;;;11.50;99.90;;;;;;5039675;28;20464;-78
2023/12/25 07:53:28;;;;;;;2.57;1.73;;;11.50;99.90;;;;;;5037882;28;20437;-79
2023/12/25 07:55:55;;;;;;;2.70;1.40;;;11.50;99.90;;;;;;5037217;28;20548;-79
2023/12/25 07:58:21;;;;;;;2.77;2.10;;;11.60;99.90;;;;;;5035896;28;20453;-78
2023/12/25 08:00:49;;;;;;;2.10;1.57;;;11.60;99.90;;;;;;5035163;28;20475;-79
2023/12/25 08:03:17;;;;;;;3.30;2.00;;;11.60;99.90;;;;;;5036656;28;20451;-80
2023/12/25 08:05:43;;;;;;;1.90;1.50;;;11.60;99.90;;;;;;5045501;28;20487;-77
2023/12/25 08:08:10;;;;;;;1.70;1.40;;;11.60;99.90;;;;;;5045642;28;20455;-80
2023/12/25 08:10:38;;;;;;;5.70;2.97;;;11.60;99.90;;;;;;5046360;28;20567;-79
2023/12/25 08:13:05;;;;;;;74.03;35.10;;;11.60;99.90;;;;;;5049246;28;20457;-79
2023/12/25 08:15:32;;;;;;;61.50;26.87;;;11.60;99.90;;;;;;5051744;28;20817;-80
2023/12/25 08:18:00;;;;;;;18.50;9.40;;;11.60;99.90;;;;;;5045286;28;20539;-77
2023/12/25 08:20:26;;;;;;;2.53;1.73;;;11.60;99.90;;;;;;5047709;28;20468;-78
2023/12/25 08:22:53;;;;;;;1.77;1.20;;;11.60;99.90;;;;;;5044798;28;20458;-78
2023/12/25 08:25:20;;;;;;;2.10;1.20;;;11.60;99.90;;;;;;5028358;28;20519;-80
2023/12/25 08:27:48;;;;;;;1.63;1.10;;;11.50;99.90;;;;;;5037952;28;21210;-81
2023/12/25 08:30:15;;;;;;;2.13;1.00;;;11.50;99.90;;;;;;5037804;28;20478;-80
2023/12/25 08:32:42;;;;;;;1.30;0.80;;;11.60;99.90;;;;;;5038464;28;20453;-80
2023/12/25 08:35:10;;;;;;;1.40;0.80;;;11.50;99.90;;;;;;5037837;28;20464;-80
2023/12/25 08:37:37;;;;;;;1.57;1.20;;;11.50;99.90;;;;;;5038324;28;20473;-81
2023/12/25 08:40:05;;;;;;;2.43;0.90;;;11.50;99.90;;;;;;5036106;28;20556;-80
2023/12/25 08:42:31;;;;;;;2.00;1.00;;;11.50;99.90;;;;;;5037726;28;20489;-80
2023/12/25 08:44:59;;;;;;;1.30;0.70;;;11.50;99.90;;;;;;5038566;28;20452;-80
2023/12/25 08:47:26;;;;;;;1.30;0.70;;;11.50;99.90;;;;;;5037747;28;20493;-80
2023/12/25 08:49:53;;;;;;;1.80;0.80;;;11.50;99.90;;;;;;5037555;28;21000;-80
2023/12/25 08:52:21;;;;;;;1.30;0.70;;;11.50;99.90;;;;;;5037467;28;20464;-79
2023/12/25 08:54:48;;;;;;;1.50;0.80;;;11.50;99.90;;;;;;5034826;28;20829;-78
2023/12/25 08:57:15;;;;;;;1.20;0.70;;;11.40;99.90;;;;;;5036647;28;20464;-79
2023/12/25 08:59:42;;;;;;;1.20;0.67;;;11.40;99.90;;;;;;5036881;28;20462;-80
2023/12/25 09:02:10;;;;;;;1.50;0.77;;;11.30;99.90;;;;;;5037070;28;20508;-79
2023/12/25 09:04:37;;;;;;;1.20;0.60;;;11.30;99.90;;;;;;5037500;28;20460;-80
2023/12/25 09:07:04;;;;;;;1.93;0.87;;;11.00;99.90;;;;;;5035387;28;20490;-81
2023/12/25 09:09:31;;;;;;;1.30;0.70;;;11.00;99.90;;;;;;5036384;28;20457;-80
2023/12/25 09:11:58;;;;;;;4.00;0.90;;;10.90;99.90;;;;;;5036608;28;20489;-81
2023/12/25 09:14:24;;;;;;;1.50;0.63;;;10.80;99.90;;;;;;5037463;28;20449;-80
2023/12/25 09:16:51;;;;;;;1.33;0.63;;;10.80;99.90;;;;;;5035933;28;20990;-79
2023/12/25 09:19:19;;;;;;;2.20;0.87;;;10.80;99.90;;;;;;5036543;28;20913;-80
2023/12/25 09:21:49;;;;;;;1.47;0.70;;;10.80;99.90;;;;;;5036904;28;20488;-81
2023/12/25 09:24:15;;;;;;;1.50;0.80;;;10.80;99.90;;;;;;5036170;28;20458;-80
2023/12/25 09:26:43;;;;;;;1.33;0.70;;;10.80;99.90;;;;;;5036556;28;20488;-81
2023/12/25 09:29:11;;;;;;;1.30;0.60;;;10.80;99.90;;;;;;5036030;28;20467;-81
2023/12/25 09:31:38;;;;;;;1.23;0.60;;;10.80;99.90;;;;;;5035955;28;20498;-80
2023/12/25 09:34:04;;;;;;;2.30;0.90;;;10.80;99.90;;;;;;5036109;28;20472;-80
2023/12/25 09:36:33;;;;;;;4.90;0.97;;;10.70;99.90;;;;;;5036879;28;20838;-79
2023/12/25 09:38:59;;;;;;;1.77;0.80;;;10.70;99.90;;;;;;5034709;28;20465;-80
2023/12/25 09:41:32;;;;;;;1.53;0.70;;;10.70;99.90;;;;;;5035868;28;20476;-79
2023/12/25 09:43:59;;;;;;;2.63;0.73;;;10.70;99.90;;;;;;5035878;28;20457;-80
2023/12/25 09:46:28;;;;;;;11.90;7.40;;;10.80;99.90;;;;;;5036786;28;20492;-79
2023/12/25 09:48:56;;;;;;;2.70;1.40;;;10.70;99.90;;;;;;5035943;28;20454;-80
2023/12/25 09:51:23;;;;;;;3.20;1.20;;;10.70;99.90;;;;;;5029642;28;20479;-83
2023/12/25 09:53:51;;;;;;;2.67;0.90;;;10.70;99.90;;;;;;5031325;28;20800;-80
2023/12/25 09:56:22;;;;;;;2.13;1.20;;;10.70;99.90;;;;;;5039506;28;20454;-79
2023/12/25 09:58:49;;;;;;;1.50;0.90;;;10.70;99.90;;;;;;5038043;28;20469;-81
2023/12/25 10:01:17;;;;;;;2.30;0.90;;;10.70;99.90;;;;;;5035624;28;20476;-80
2023/12/25 10:03:45;;;;;;;1.90;1.00;;;10.70;99.90;;;;;;5031621;28;20538;-80
2023/12/25 10:06:12;;;;;;;2.00;1.00;;;10.80;99.90;;;;;;5035708;28;20945;-80
2023/12/25 10:08:40;;;;;;;1.90;0.97;;;10.70;99.90;;;;;;5035107;28;20449;-81
2023/12/25 10:11:13;;;;;;;2.20;0.90;;;10.80;99.90;;;;;;5033472;28;20537;-79
2023/12/25 10:13:40;;;;;;;2.30;0.97;;;10.80;99.90;;;;;;5035347;28;20444;-81
2023/12/25 10:16:08;;;;;;;2.30;1.20;;;10.80;99.90;;;;;;5035342;28;20456;-80
2023/12/25 10:18:36;;;;;;;1.47;0.90;;;10.80;99.90;;;;;;5034616;28;20464;-80
2023/12/25 10:21:04;;;;;;;1.87;0.90;;;10.80;99.90;;;;;;5034800;28;21016;-80
2023/12/25 10:23:31;;;;;;;1.87;0.90;;;10.80;99.90;;;;;;5033166;28;20996;-80
2023/12/25 10:25:59;;;;;;;1.70;0.90;;;10.80;99.90;;;;;;5035720;28;20452;-81
2023/12/25 10:28:28;;;;;;;1.87;0.90;;;10.80;99.90;;;;;;5035316;28;20488;-81
2023/12/25 10:31:02;;;;;;;2.70;1.07;;;10.70;99.90;;;;;;5034745;28;20538;-79
2023/12/25 10:33:29;;;;;;;2.93;1.00;;;10.70;99.90;;;;;;5035647;28;20457;-81
2023/12/25 10:36:04;;;;;;;2.53;1.50;;;10.80;99.90;;;;;;5035464;28;21052;-80
2023/12/25 10:38:36;;;;;;;1.90;1.17;;;10.90;99.90;;;;;;5033615;28;20945;-81
2023/12/25 10:41:19;;;;;;;2.10;1.20;;;10.90;99.90;;;;;;5033749;28;20476;-81
2023/12/25 10:43:52;;;;;;;2.83;1.27;;;11.00;99.90;;;;;;5035658;28;20457;-81
2023/12/25 10:46:21;;;;;;;1.63;1.07;;;11.00;99.90;;;;;;5014717;28;20514;-80
2023/12/25 10:48:50;;;;;;;1.70;1.03;;;11.10;99.90;;;;;;5034523;28;20962;-81
2023/12/25 10:51:24;;;;;;;2.00;1.20;;;11.10;99.90;;;;;;5034571;28;20470;-81
2023/12/25 10:53:54;;;;;;;1.50;0.87;;;11.00;99.90;;;;;;5034936;28;20953;-81
2023/12/25 10:56:23;;;;;;;1.73;1.00;;;11.00;99.90;;;;;;5035126;28;20448;-81
2023/12/25 10:58:52;;;;;;;1.60;1.00;;;11.00;99.90;;;;;;5034507;28;20461;-81
2023/12/25 11:01:23;;;;;;;2.60;1.77;;;11.00;99.90;;;;;;5034326;28;21046;-80
2023/12/25 11:03:51;;;;;;;42.73;25.13;;;11.10;99.90;;;;;;5036034;28;20465;-79
2023/12/25 11:06:18;;;;;;;6.90;5.53;;;11.20;99.90;;;;;;5038939;28;21016;-81
2023/12/25 11:08:45;;;;;;;3.83;3.00;;;11.10;99.90;;;;;;5038829;28;20453;-81
2023/12/25 11:11:13;;;;;;;2.90;1.60;;;11.10;99.90;;;;;;5038363;28;20465;-81
2023/12/25 11:13:40;;;;;;;5.17;1.20;;;11.20;99.90;;;;;;5039666;28;20523;-81
2023/12/25 11:16:09;;;;;;;1.73;1.10;;;11.20;99.90;;;;;;5039253;28;20461;-81
2023/12/25 11:18:38;;;;;;;1.80;1.23;;;11.20;99.90;;;;;;5034837;28;20455;-81
2023/12/25 11:21:07;;;;;;;1.83;1.20;;;11.20;99.90;;;;;;5040363;28;20485;-81
2023/12/25 11:23:35;;;;;;;1.60;1.10;;;11.10;99.90;;;;;;5039777;28;20492;-82
2023/12/25 11:26:05;;;;;;;3.60;1.53;;;11.20;99.90;;;;;;5040270;28;20463;-81
2023/12/25 11:28:34;;;;;;;3.40;2.40;;;11.20;99.90;;;;;;5040501;28;20499;-81
2023/12/25 11:31:01;;;;;;;3.90;2.97;;;11.10;99.90;;;;;;5039831;28;21069;-82
2023/12/25 11:33:29;;;;;;;7.07;3.77;;;11.20;99.90;;;;;;5038965;28;20951;-81
2023/12/25 11:35:57;;;;;;;5.97;3.83;;;11.20;99.90;;;;;;5003915;28;1074576;-81
2023/12/25 11:38:30;;;;;;;7.23;4.70;;;11.30;99.90;;;;;;5039879;28;20336;-81
2023/12/25 11:41:02;;;;;;;4.97;3.40;;;11.30;99.90;;;;;;5038636;28;20499;-82
2023/12/25 11:43:33;;;;;;;6.37;2.97;;;11.30;99.90;;;;;;5039841;28;20480;-80
2023/12/25 11:46:02;;;;;;;4.03;2.63;;;11.40;99.90;;;;;;5040952;28;20545;-80
2023/12/25 11:48:32;;;;;;;3.90;2.70;;;11.30;99.90;;;;;;5040437;28;21000;-81
2023/12/25 11:51:18;;;;;;;3.73;2.97;;;11.20;99.90;;;;;;5039807;28;21007;-81
2023/12/25 11:53:45;;;;;;;6.13;2.70;;;11.20;99.90;;;;;;5040071;28;20550;-81
2023/12/25 11:56:12;;;;;;;2.77;2.37;;;11.30;99.90;;;;;;5040923;28;20464;-81
2023/12/25 11:58:40;;;;;;;4.03;2.70;;;11.30;99.90;;;;;;5042124;28;20452;-80
2023/12/25 12:01:07;;;;;;;3.70;2.70;;;11.30;99.90;;;;;;5051882;28;20557;-79
2023/12/25 12:03:35;;;;;;;3.00;2.50;;;11.30;99.90;;;;;;5051523;28;20541;-81
2023/12/25 12:06:02;;;;;;;2.70;2.50;;;11.40;99.90;;;;;;5046781;28;20462;-80
2023/12/25 12:08:29;;;;;;;4.63;2.40;;;11.40;99.90;;;;;;5038212;28;20516;-81
2023/12/25 12:10:56;;;;;;;2.60;2.40;;;11.40;99.90;;;;;;5038458;28;20479;-81
2023/12/25 12:13:24;;;;;;;2.77;2.20;;;11.40;99.90;;;;;;5038529;28;20465;-82
2023/12/25 12:15:52;;;;;;;3.80;2.70;;;11.50;99.90;;;;;;5037991;28;20461;-82
2023/12/25 12:18:20;;;;;;;4.93;2.63;;;11.50;99.90;;;;;;5038409;28;20450;-79
2023/12/25 12:20:48;;;;;;;3.40;2.50;;;11.50;99.90;;;;;;5029774;28;20481;-82
2023/12/25 12:23:15;;;;;;;4.57;2.90;;;11.40;99.90;;;;;;5037476;28;20468;-82
2023/12/25 12:25:42;;;;;;;3.30;2.43;;;11.50;99.90;;;;;;5039290;28;20975;-81
2023/12/25 12:28:09;;;;;;;3.97;2.27;;;11.50;99.90;;;;;;5038742;28;20518;-81
2023/12/25 12:30:37;;;;;;;3.57;1.90;;;11.60;99.90;;;;;;5037836;28;20483;-82
2023/12/25 12:33:05;;;;;;;4.47;2.90;;;11.40;99.90;;;;;;5040073;28;20454;-81
2023/12/25 12:35:32;;;;;;;2.77;1.73;;;11.40;99.90;;;;;;5037652;28;20465;-81
2023/12/25 12:38:00;;;;;;;2.60;2.00;;;11.50;99.90;;;;;;5037880;28;20964;-81
2023/12/25 12:40:28;;;;;;;3.40;2.20;;;11.50;99.90;;;;;;5038113;28;20879;-81
2023/12/25 12:42:55;;;;;;;2.53;1.80;;;11.50;99.90;;;;;;5037869;28;20460;-80
2023/12/25 12:45:22;;;;;;;2.70;1.80;;;11.50;99.90;;;;;;5038324;28;20463;-80
2023/12/25 12:47:52;;;;;;;3.20;1.83;;;11.50;99.90;;;;;;5038222;28;20560;-79